Time;durP1;ratioP1;P1;durP2;ratioP2;P2;SDS_P1;SDS_P2;PMS_P1;PMS_P2;Temp;Humidity;BMP_temperature;BMP_pressure;BME280_temperature;BME280_humidity;BME280_pressure;Samples;Min_cycle;Max_cycle;Signal;HPM_P1;HPM_P2
2023/01/13 00:01:54;;;;;;;15.02;3.15;;;;;;;8.31;100.00;100401.72;5359747;27;20143;-81
2023/01/13 00:04:26;;;;;;;14.80;3.75;;;;;;;8.28;100.00;100406.47;5352471;27;20030;-81
2023/01/13 00:06:57;;;;;;;17.13;2.80;;;;;;;8.21;100.00;100418.63;5350376;27;20494;-81
2023/01/13 00:09:28;;;;;;;17.13;3.30;;;;;;;8.23;100.00;100424.63;5365183;27;35858;-81
2023/01/13 00:12:00;;;;;;;24.20;3.67;;;;;;;8.25;100.00;100406.72;5363012;27;20023;-81
2023/01/13 00:14:35;;;;;;;15.00;3.60;;;;;;;8.25;100.00;100418.19;5358912;27;20066;-81
2023/01/13 00:17:06;;;;;;;20.05;3.45;;;;;;;8.14;100.00;100407.69;5362998;27;20019;-81
2023/01/13 00:19:38;;;;;;;18.70;3.47;;;;;;;8.08;100.00;100397.59;5363248;27;20027;-81
2023/01/13 00:22:09;;;;;;;20.80;3.70;;;;;;;8.05;100.00;100409.38;5345950;27;20044;-81
2023/01/13 00:24:40;;;;;;;17.95;3.45;;;;;;;8.08;100.00;100389.63;5338071;27;20023;-81
2023/01/13 00:27:12;;;;;;;21.88;4.03;;;;;;;8.08;100.00;100384.31;5341243;27;20030;-81
2023/01/13 00:29:43;;;;;;;20.00;3.83;;;;;;;8.02;100.00;100380.41;5340858;27;20031;-81
2023/01/13 00:32:14;;;;;;;25.13;4.10;;;;;;;8.02;100.00;100387.53;5338713;27;20062;-81
2023/01/13 00:34:46;;;;;;;19.02;3.53;;;;;;;7.89;100.00;100388.63;5338401;27;20078;-81
2023/01/13 00:37:17;;;;;;;23.77;4.20;;;;;;;7.82;100.00;100366.25;5340351;27;20019;-81
2023/01/13 00:39:50;;;;;;;17.52;4.03;;;;;;;7.81;100.00;100367.22;5318058;27;20028;-81
2023/01/13 00:45:11;;;;;;;17.15;3.25;;;;;;;7.74;100.00;100369.59;5340461;27;20024;-81
2023/01/13 00:47:43;;;;;;;23.15;4.05;;;;;;;7.77;100.00;100355.22;5314886;27;20080;-81
2023/01/13 00:50:14;;;;;;;26.95;4.15;;;;;;;7.75;100.00;100358.00;5337364;27;20123;-80
2023/01/13 00:52:46;;;;;;;21.90;4.18;;;;;;;7.73;100.00;100359.97;5339954;27;20036;-81
2023/01/13 00:55:17;;;;;;;19.05;3.38;;;;;;;7.76;100.00;100348.22;5340006;27;20021;-80
2023/01/13 00:57:48;;;;;;;26.90;5.22;;;;;;;7.74;100.00;100353.66;5316218;27;22046;-80
2023/01/13 01:00:19;;;;;;;20.17;4.15;;;;;;;7.71;100.00;100361.91;5338810;27;20117;-81
2023/01/13 01:02:51;;;;;;;30.50;6.32;;;;;;;7.65;100.00;100361.59;5341750;27;20106;-79
2023/01/13 01:05:22;;;;;;;18.17;4.07;;;;;;;7.70;100.00;100367.34;5341346;27;20345;-80
2023/01/13 01:07:53;;;;;;;22.45;3.65;;;;;;;7.73;100.00;100367.06;5339519;27;20076;-80
2023/01/13 01:10:25;;;;;;;26.55;5.32;;;;;;;7.64;100.00;100366.06;5338301;27;20047;-80
2023/01/13 01:12:56;;;;;;;20.27;3.63;;;;;;;7.76;100.00;100388.03;5334885;27;20027;-80
2023/01/13 01:15:27;;;;;;;21.85;4.25;;;;;;;7.86;100.00;100388.91;5337286;27;20019;-80
2023/01/13 01:17:59;;;;;;;15.32;3.42;;;;;;;7.86;100.00;100382.75;5343307;27;20023;-81
2023/01/13 01:20:30;;;;;;;23.98;4.65;;;;;;;7.94;100.00;100383.75;5341808;27;21605;-81
2023/01/13 01:23:01;;;;;;;20.98;4.22;;;;;;;8.00;100.00;100374.41;5338572;27;20113;-81
2023/01/13 01:25:33;;;;;;;19.02;3.45;;;;;;;7.99;100.00;100366.56;5339334;27;20045;-81
2023/01/13 01:28:04;;;;;;;23.00;4.90;;;;;;;7.99;100.00;100379.84;5341595;27;20545;-81
2023/01/13 01:30:38;;;;;;;27.25;3.47;;;;;;;7.88;100.00;100371.00;5333097;27;20024;-81
2023/01/13 01:33:09;;;;;;;26.30;3.67;;;;;;;7.89;100.00;100375.38;5337979;27;20512;-81
2023/01/13 01:35:40;;;;;;;20.15;4.13;;;;;;;7.88;100.00;100373.66;5338270;27;20018;-81
2023/01/13 01:38:11;;;;;;;27.35;4.57;;;;;;;7.84;100.00;100380.25;5342257;27;20042;-81
2023/01/13 01:40:43;;;;;;;22.15;3.85;;;;;;;7.85;100.00;100373.09;5339603;27;20115;-81
2023/01/13 01:46:30;;;;;;;23.45;3.53;;;;;;;7.83;100.00;100385.69;5272591;28;20164;-81
2023/01/13 01:49:07;;;;;;;19.75;4.63;;;;;;;7.73;100.00;100381.19;5276772;28;20037;-81
2023/01/13 01:51:53;;;;;;;29.40;4.25;;;;;;;7.72;100.00;100376.84;5312983;27;20039;-81
2023/01/13 01:54:31;;;;;;;23.40;4.20;;;;;;;7.68;100.00;100367.47;5337626;27;20020;-81
2023/01/13 01:57:03;;;;;;;25.73;4.10;;;;;;;7.58;100.00;100370.09;5341607;27;20020;-81
2023/01/13 01:59:35;;;;;;;24.02;4.68;;;;;;;7.61;100.00;100376.97;5334548;27;20103;-81
2023/01/13 02:02:07;;;;;;;28.85;5.40;;;;;;;7.53;100.00;100379.44;5331914;27;20032;-80
2023/01/13 02:04:49;;;;;;;23.88;4.82;;;;;;;7.61;100.00;100374.31;5335121;27;20402;-81
2023/01/13 02:07:24;;;;;;;30.42;5.05;;;;;;;7.55;100.00;100362.41;5337041;27;20027;-81
2023/01/13 02:09:59;;;;;;;26.27;5.22;;;;;;;7.56;100.00;100382.66;5334266;27;20077;-81
2023/01/13 02:12:31;;;;;;;31.60;4.70;;;;;;;7.55;100.00;100369.53;5334650;27;20035;-81
2023/01/13 02:15:08;;;;;;;30.30;6.05;;;;;;;7.56;100.00;100373.88;5336278;27;20028;-81
2023/01/13 02:17:48;;;;;;;29.13;6.15;;;;;;;7.52;100.00;100368.00;5334640;27;20032;-81
2023/01/13 02:20:38;;;;;;;30.20;6.03;;;;;;;7.41;100.00;100373.38;5333557;27;20135;-81
2023/01/13 02:26:25;;;;;;;32.13;6.57;;;;;;;7.37;100.00;100371.97;5336920;27;20052;-81
2023/01/13 02:32:32;;;;;;;33.28;7.35;;;;;;;7.34;100.00;100378.38;5338039;27;20044;-81
2023/01/13 02:35:11;;;;;;;30.58;5.22;;;;;;;7.28;100.00;100375.44;5337938;27;20449;-80
2023/01/13 02:37:43;;;;;;;35.83;6.22;;;;;;;7.39;100.00;100377.97;5321454;27;20028;-81
2023/01/13 02:40:29;;;;;;;22.92;4.57;;;;;;;7.49;100.00;100375.38;5338312;27;20016;-81
2023/01/13 02:46:07;;;;;;;31.05;5.22;;;;;;;7.51;100.00;100360.16;5338466;27;20035;-81
2023/01/13 02:48:41;;;;;;;26.58;5.82;;;;;;;7.51;100.00;100353.03;5339539;27;20107;-80
2023/01/13 02:51:16;;;;;;;31.08;5.30;;;;;;;7.57;100.00;100356.94;5341050;27;20027;-81
2023/01/13 02:53:54;;;;;;;23.15;5.05;;;;;;;7.62;100.00;100356.56;5339462;27;20031;-80
2023/01/13 02:56:26;;;;;;;32.80;5.68;;;;;;;7.64;100.00;100347.47;5336635;27;20032;-80
2023/01/13 02:58:59;;;;;;;34.55;6.13;;;;;;;7.64;100.00;100346.66;5339447;27;20107;-81
2023/01/13 03:01:30;;;;;;;27.27;5.25;;;;;;;7.70;100.00;100332.84;5339430;27;20031;-81
2023/01/13 03:04:35;;;;;;;26.90;5.28;;;;;;;7.73;100.00;100332.53;5320810;27;20055;-81
2023/01/13 03:07:12;;;;;;;37.78;5.85;;;;;;;7.76;100.00;100322.50;5319564;27;20043;-81
2023/01/13 03:09:54;;;;;;;31.58;5.47;;;;;;;7.83;100.00;100332.56;5339573;27;20102;-81
2023/01/13 03:12:31;;;;;;;23.70;5.70;;;;;;;7.89;100.00;100338.19;5339470;27;20039;-81
2023/01/13 03:15:24;;;;;;;24.27;4.35;;;;;;;7.96;100.00;100338.47;5337107;27;20039;-81
2023/01/13 03:18:12;;;;;;;24.27;4.57;;;;;;;7.90;100.00;100341.66;5338508;27;20420;-81
2023/01/13 03:20:48;;;;;;;;;;;;;;;7.92;100.00;100348.53;5339215;27;20034;-81
2023/01/13 03:23:35;;;;;;;22.95;3.97;;;;;;;8.01;100.00;100341.56;5335235;27;19916;-81
2023/01/13 03:26:11;;;;;;;;;;;;;;;8.08;100.00;100337.38;5311995;27;20035;-81
2023/01/13 03:28:51;;;;;;;23.15;4.28;;;;;;;8.06;100.00;100344.63;5327382;27;19919;-81
2023/01/13 03:31:28;;;;;;;20.15;3.97;;;;;;;8.16;100.00;100327.88;5336408;27;20456;-81
2023/01/13 03:34:21;;;;;;;21.35;4.05;;;;;;;8.24;100.00;100325.34;5331553;27;20037;-81
2023/01/13 03:36:56;;;;;;;20.70;5.63;;;;;;;8.21;100.00;100378.78;5336798;27;20024;-81
2023/01/13 03:39:35;;;;;;;13.25;3.05;;;;;;;8.24;100.00;100322.69;5330890;27;20027;-80
2023/01/13 03:42:13;;;;;;;8.73;2.45;;;;;;;8.26;100.00;100329.53;5334849;27;20024;-81
2023/01/13 03:45:06;;;;;;;6.10;1.52;;;;;;;8.36;100.00;100328.69;5335239;27;20092;-81
2023/01/13 03:47:51;;;;;;;10.55;2.03;;;;;;;8.25;100.00;100330.50;5335923;27;20025;-81
2023/01/13 03:50:36;;;;;;;8.70;1.48;;;;;;;8.13;100.00;100324.53;5338041;27;20356;-81
2023/01/13 03:53:18;;;;;;;6.25;1.30;;;;;;;8.07;100.00;100306.47;5337026;27;20061;-81
2023/01/13 03:56:06;;;;;;;6.13;1.45;;;;;;;8.06;100.00;100317.22;5336701;27;20040;-81
2023/01/13 03:58:40;;;;;;;;;;;;;;;8.11;100.00;100307.03;5337786;27;20024;-81
2023/01/13 04:01:24;;;;;;;5.85;1.02;;;;;;;8.05;100.00;100313.75;5335004;27;20054;-81
2023/01/13 04:03:58;;;;;;;3.45;0.98;;;;;;;8.03;100.00;100312.19;5340073;27;20396;-81
2023/01/13 04:06:47;;;;;;;6.88;1.17;;;;;;;7.97;100.00;100318.91;5335188;27;20028;-81
2023/01/13 04:09:33;;;;;;;9.15;1.35;;;;;;;7.87;100.00;100334.84;5335024;27;20345;-81
2023/01/13 04:12:16;;;;;;;2.88;0.77;;;;;;;7.86;100.00;100332.31;5337541;27;20709;-81
2023/01/13 04:14:48;;;;;;;6.90;1.38;;;;;;;7.74;100.00;100337.72;5334475;27;20038;-81
2023/01/13 04:17:20;;;;;;;4.82;1.17;;;;;;;7.72;100.00;100334.38;5335031;27;20546;-81
2023/01/13 04:19:51;;;;;;;9.40;2.17;;;;;;;7.61;100.00;100354.88;5334654;27;20032;-81
2023/01/13 04:22:23;;;;;;;12.32;2.60;;;;;;;7.54;100.00;100347.47;5334251;27;20043;-81
2023/01/13 04:24:54;;;;;;;14.25;3.33;;;;;;;7.49;100.00;100359.47;5338865;27;20028;-81
2023/01/13 04:27:25;;;;;;;17.25;3.95;;;;;;;7.56;100.00;100368.56;5341547;27;20052;-81
2023/01/13 04:29:56;;;;;;;9.85;2.25;;;;;;;7.61;100.00;100362.84;5344632;27;20573;-81
2023/01/13 04:32:28;;;;;;;12.95;2.22;;;;;;;7.55;100.00;100350.94;5330043;27;20032;-81
2023/01/13 04:34:59;;;;;;;14.68;3.00;;;;;;;7.60;100.00;100353.22;5341690;27;20032;-80
2023/01/13 04:37:30;;;;;;;13.30;2.47;;;;;;;7.55;100.00;100350.94;5335391;27;20036;-80
2023/01/13 04:40:02;;;;;;;14.02;2.65;;;;;;;7.55;100.00;100361.56;5338445;27;20031;-80
2023/01/13 04:42:33;;;;;;;13.10;2.83;;;;;;;7.55;100.00;100353.59;5311904;27;20060;-79
2023/01/13 04:45:05;;;;;;;13.75;2.83;;;;;;;7.56;100.00;100361.44;5338480;27;20749;-80
2023/01/13 04:47:37;;;;;;;16.58;2.35;;;;;;;7.55;100.00;100356.25;5333229;27;20031;-79
2023/01/13 04:50:09;;;;;;;18.25;3.13;;;;;;;7.51;100.00;100363.66;5339345;27;20031;-79
2023/01/13 04:52:40;;;;;;;16.02;3.63;;;;;;;7.62;100.00;100360.03;5339939;27;20070;-80
2023/01/13 04:55:12;;;;;;;15.63;3.60;;;;;;;7.55;100.00;100383.63;5341737;27;20051;-80
2023/01/13 04:57:44;;;;;;;15.80;3.17;;;;;;;7.52;100.00;100343.25;5339289;27;20031;-80
2023/01/13 05:00:17;;;;;;;11.38;2.58;;;;;;;7.52;100.00;100340.59;5333697;27;20031;-80
2023/01/13 05:02:50;;;;;;;13.27;2.70;;;;;;;7.48;100.00;100339.19;5338623;27;20020;-80
2023/01/13 05:05:21;;;;;;;15.38;3.95;;;;;;;7.45;100.00;100350.06;5335632;27;20491;-80
2023/01/13 05:07:53;;;;;;;19.98;3.15;;;;;;;7.34;100.00;100330.63;5336762;27;20027;-80
2023/01/13 05:10:24;;;;;;;12.90;2.58;;;;;;;7.33;100.00;100328.13;5338184;27;20567;-79
2023/01/13 05:18:52;;;;;;;22.65;3.70;;;;;;;7.24;100.00;100326.25;5268843;28;20100;-80
2023/01/13 05:27:04;;;;;;;17.02;3.08;;;;;;;7.24;100.00;100329.75;5352306;27;20432;-80
2023/01/13 05:29:35;;;;;;;15.48;3.50;;;;;;;7.20;100.00;100352.19;5355951;27;20114;-80
2023/01/13 05:32:07;;;;;;;12.68;3.10;;;;;;;7.18;100.00;100339.06;5357537;27;20028;-80
2023/01/13 05:34:38;;;;;;;13.10;3.00;;;;;;;7.20;100.00;100341.59;5359318;27;20147;-80
2023/01/13 05:37:12;;;;;;;19.05;3.83;;;;;;;7.21;100.00;100339.81;5352594;27;20024;-80
2023/01/13 05:45:23;;;;;;;16.80;2.53;;;;;;;6.99;100.00;100354.88;5356479;27;20027;-80
2023/01/13 05:47:55;;;;;;;14.07;2.90;;;;;;;6.98;100.00;100364.66;5355160;27;20030;-80
2023/01/13 05:50:27;;;;;;;14.35;2.63;;;;;;;6.95;100.00;100364.91;5352926;27;20743;-80
2023/01/13 05:52:58;;;;;;;13.93;2.72;;;;;;;6.97;100.00;100370.94;5361084;27;22781;-80
2023/01/13 05:55:29;;;;;;;21.00;3.35;;;;;;;6.97;100.00;100370.09;5353921;27;20106;-80
2023/01/13 05:58:00;;;;;;;14.32;2.92;;;;;;;6.98;100.00;100371.78;5353205;27;20535;-80
2023/01/13 06:00:32;;;;;;;19.75;2.58;;;;;;;7.05;100.00;100365.00;5367124;27;20368;-81
2023/01/13 06:03:04;;;;;;;17.80;4.15;;;;;;;6.95;100.00;100369.38;5368375;27;20023;-79
2023/01/13 06:05:36;;;;;;;18.73;2.97;;;;;;;6.93;100.00;100364.22;5354347;27;20500;-80
2023/01/13 06:08:08;;;;;;;19.63;2.92;;;;;;;6.99;100.00;100390.22;5365764;27;20019;-80
2023/01/13 06:10:39;;;;;;;15.73;2.78;;;;;;;6.93;100.00;100380.13;5367956;27;20421;-80
2023/01/13 06:13:11;;;;;;;14.30;3.10;;;;;;;6.93;100.00;100382.78;5356486;27;20080;-80
2023/01/13 06:15:42;;;;;;;18.67;4.63;;;;;;;6.88;100.00;100386.78;5347269;27;20023;-80
2023/01/13 06:18:13;;;;;;;14.98;2.45;;;;;;;6.88;100.00;100389.44;5346745;27;20051;-80
2023/01/13 06:20:45;;;;;;;15.13;2.90;;;;;;;6.85;100.00;100393.19;5357408;27;20061;-79
2023/01/13 06:23:17;;;;;;;17.58;3.65;;;;;;;6.95;100.00;100399.38;5332891;27;20020;-80
2023/01/13 06:26:08;;;;;;;16.05;2.80;;;;;;;6.91;100.00;100397.16;5346019;27;20032;-80
2023/01/13 06:28:40;;;;;;;13.57;2.22;;;;;;;6.82;100.00;100396.09;5346534;27;20019;-80
2023/01/13 06:31:11;;;;;;;13.27;3.47;;;;;;;6.87;100.00;100393.06;5330528;27;20084;-81
2023/01/13 06:33:48;;;;;;;16.33;2.85;;;;;;;6.86;100.00;100402.00;5342772;27;20524;-80
2023/01/13 06:36:24;;;;;;;16.35;3.60;;;;;;;6.92;100.00;100412.06;5342957;27;20340;-81
2023/01/13 06:38:59;;;;;;;19.40;3.63;;;;;;;7.00;100.00;100409.63;5344323;27;20541;-81
2023/01/13 06:44:23;;;;;;;20.23;4.18;;;;;;;7.13;100.00;100415.53;5329739;27;20036;-81
2023/01/13 06:46:54;;;;;;;16.42;3.22;;;;;;;7.21;100.00;100419.38;5325070;27;20094;-80
2023/01/13 06:49:25;;;;;;;11.90;2.35;;;;;;;7.22;100.00;100405.13;5324317;28;20028;-80
2023/01/13 06:51:56;;;;;;;20.08;3.15;;;;;;;7.28;100.00;100416.06;5344946;27;20024;-80
2023/01/13 06:54:28;;;;;;;17.73;3.42;;;;;;;7.37;100.00;100409.97;5345394;27;20111;-80
2023/01/13 06:57:00;;;;;;;17.85;3.28;;;;;;;7.41;100.00;100397.25;5343088;27;20043;-81
2023/01/13 06:59:34;;;;;;;17.58;2.72;;;;;;;7.39;100.00;100399.22;5343684;27;20464;-81
2023/01/13 07:02:05;;;;;;;19.15;2.85;;;;;;;7.32;100.00;100401.56;5326421;27;20380;-81
2023/01/13 07:04:36;;;;;;;20.17;3.63;;;;;;;7.33;100.00;100403.25;5335579;27;20020;-81
2023/01/13 07:07:08;;;;;;;16.25;2.55;;;;;;;7.33;100.00;100410.38;5306496;28;20078;-80
2023/01/13 07:09:39;;;;;;;15.25;2.90;;;;;;;7.30;100.00;100414.13;5324079;27;20027;-81
2023/01/13 07:12:11;;;;;;;16.33;3.38;;;;;;;7.36;100.00;100426.88;5345361;27;20034;-81
2023/01/13 07:17:32;;;;;;;20.00;4.38;;;;;;;7.32;100.00;100433.38;5336592;27;20334;-80
2023/01/13 07:20:04;;;;;;;16.90;3.28;;;;;;;7.24;100.00;100422.63;5339880;27;20038;-80
2023/01/13 07:22:35;;;;;;;22.92;3.72;;;;;;;7.25;100.00;100439.38;5344910;27;20039;-81
2023/01/13 07:25:07;;;;;;;15.23;3.20;;;;;;;7.26;100.00;100430.41;5345126;27;20031;-81
2023/01/13 07:27:38;;;;;;;20.08;4.18;;;;;;;7.29;100.00;100423.06;5345234;27;20024;-81
2023/01/13 07:30:10;;;;;;;19.40;3.58;;;;;;;7.25;100.00;100418.97;5331484;27;20024;-81
2023/01/13 07:32:42;;;;;;;18.27;2.95;;;;;;;7.18;100.00;100418.66;5336844;27;20223;-81
2023/01/13 07:35:13;;;;;;;19.98;3.83;;;;;;;7.18;100.00;100408.03;5345035;27;20024;-81
2023/01/13 07:37:44;;;;;;;19.02;3.83;;;;;;;7.21;100.00;100428.16;5338782;27;20039;-81
2023/01/13 07:40:16;;;;;;;19.92;4.38;;;;;;;7.19;100.00;100425.66;5322875;27;20036;-82
2023/01/13 07:45:37;;;;;;;17.85;3.25;;;;;;;7.10;100.00;100441.47;5340519;27;20123;-82
2023/01/13 07:48:08;;;;;;;19.60;3.15;;;;;;;7.03;100.00;100446.50;5337323;27;20099;-82
2023/01/13 07:50:40;;;;;;;20.27;4.53;;;;;;;7.07;100.00;100439.94;5332593;27;20044;-82
2023/01/13 07:53:11;;;;;;;19.45;4.07;;;;;;;7.08;100.00;100451.38;5345072;27;20028;-81
2023/01/13 07:55:47;;;;;;;19.83;3.42;;;;;;;7.05;100.00;100454.28;5337347;27;20074;-81
2023/01/13 07:58:18;;;;;;;18.92;3.67;;;;;;;7.07;100.00;100455.03;5340764;27;20086;-81
2023/01/13 08:00:50;;;;;;;16.23;3.85;;;;;;;7.05;100.00;100438.38;5345735;27;20015;-81
2023/01/13 08:03:22;;;;;;;22.85;4.93;;;;;;;7.10;100.00;100474.19;5340865;27;20091;-81
2023/01/13 08:05:54;;;;;;;17.90;3.75;;;;;;;7.15;100.00;100458.72;5347748;27;20043;-81
2023/01/13 08:08:25;;;;;;;25.20;4.57;;;;;;;7.08;100.00;100456.69;5351954;27;20027;-81
2023/01/13 08:11:03;;;;;;;21.90;3.92;;;;;;;7.16;100.00;100463.03;5354318;27;20123;-82
2023/01/13 08:13:35;;;;;;;22.35;3.90;;;;;;;7.12;100.00;100460.78;5339692;27;20119;-83
2023/01/13 08:16:11;;;;;;;17.60;3.45;;;;;;;7.15;100.00;100458.72;5326917;27;20081;-82
2023/01/13 08:18:42;;;;;;;16.63;3.60;;;;;;;7.11;100.00;100464.41;5347356;27;20024;-81
2023/01/13 08:21:14;;;;;;;17.63;4.00;;;;;;;7.17;100.00;100467.38;5348348;27;20032;-82
2023/01/13 08:23:46;;;;;;;19.70;3.58;;;;;;;7.16;100.00;100464.84;5347497;27;20110;-81
2023/01/13 08:26:17;;;;;;;18.52;3.97;;;;;;;7.16;100.00;100468.34;5348277;27;20099;-81
2023/01/13 08:28:49;;;;;;;21.15;3.53;;;;;;;7.21;100.00;100467.97;5345813;27;20116;-82
2023/01/13 08:31:20;;;;;;;17.70;4.40;;;;;;;7.21;100.00;100469.78;5324243;27;20122;-81
2023/01/13 08:33:51;;;;;;;23.88;4.40;;;;;;;7.26;100.00;100463.09;5346187;27;20731;-81
2023/01/13 08:36:24;;;;;;;18.40;4.45;;;;;;;7.32;100.00;100464.41;5348437;27;20024;-82
2023/01/13 08:38:55;;;;;;;21.55;3.47;;;;;;;7.33;100.00;100458.13;5347919;27;20018;-82
2023/01/13 08:44:16;;;;;;;20.42;4.30;;;;;;;7.52;100.00;100471.50;5337616;27;20036;-82
2023/01/13 08:46:48;;;;;;;17.75;4.93;;;;;;;7.69;100.00;100456.75;5329340;27;20035;-82
2023/01/13 08:49:20;;;;;;;20.63;4.10;;;;;;;7.81;100.00;100469.94;5343966;27;20444;-81
2023/01/13 08:51:52;;;;;;;19.52;4.82;;;;;;;7.85;100.00;100466.88;5344118;27;20047;-81
2023/01/13 08:54:26;;;;;;;25.60;4.75;;;;;;;7.90;100.00;100464.66;5346512;27;20372;-82
2023/01/13 08:56:57;;;;;;;21.88;5.00;;;;;;;7.98;100.00;100476.41;5345984;27;20024;-82
2023/01/13 08:59:29;;;;;;;24.77;4.43;;;;;;;8.08;100.00;100480.81;5328465;27;20042;-82
2023/01/13 09:02:00;;;;;;;19.80;4.38;;;;;;;8.17;100.00;100467.69;5328687;27;20119;-83
2023/01/13 09:04:31;;;;;;;18.65;4.15;;;;;;;8.14;100.00;100474.94;5308400;27;20158;-82
2023/01/13 09:07:02;;;;;;;17.13;3.88;;;;;;;8.06;100.00;100479.25;5346209;27;34293;-83
2023/01/13 09:09:34;;;;;;;24.48;4.07;;;;;;;8.04;100.00;100479.38;5348269;27;20226;-82
2023/01/13 09:14:57;;;;;;;19.67;3.58;;;;;;;8.00;100.00;100472.69;5345164;27;20483;-82
2023/01/13 09:17:28;;;;;;;23.38;4.50;;;;;;;8.03;100.00;100490.16;5344297;27;20035;-82
2023/01/13 09:19:59;;;;;;;18.80;4.25;;;;;;;8.18;100.00;100474.69;5344387;27;20023;-82
2023/01/13 09:22:31;;;;;;;23.33;6.07;;;;;;;8.27;100.00;100489.81;5345474;27;20391;-82
2023/01/13 09:25:03;;;;;;;21.05;4.30;;;;;;;8.40;100.00;100516.97;5343680;27;20031;-82
2023/01/13 09:27:34;;;;;;;22.23;4.45;;;;;;;8.57;100.00;100542.06;5342928;27;20110;-82
2023/01/13 09:30:06;;;;;;;23.02;4.80;;;;;;;8.81;100.00;100508.94;5340645;27;20023;-81
2023/01/13 09:32:40;;;;;;;15.88;3.75;;;;;;;8.81;100.00;100512.44;5336867;27;20040;-80
2023/01/13 09:35:12;;;;;;;26.90;5.93;;;;;;;8.66;100.00;100533.31;5339811;27;20388;-81
2023/01/13 09:37:43;;;;;;;24.02;4.20;;;;;;;8.57;100.00;100527.94;5324534;27;20026;-81
2023/01/13 09:40:18;;;;;;;19.98;4.45;;;;;;;8.50;100.00;100540.94;5339324;27;20437;-80
2023/01/13 09:46:00;;;;;;;20.13;4.57;;;;;;;8.46;100.00;100535.06;5348792;27;20507;-81
2023/01/13 09:48:50;;;;;;;27.85;6.50;;;;;;;8.42;100.00;100556.72;5339905;27;20053;-81
2023/01/13 09:51:47;;;;;;;29.85;5.95;;;;;;;8.48;100.00;100537.59;5345423;27;20032;-81
2023/01/13 09:54:30;;;;;;;19.70;5.18;;;;;;;8.44;100.00;100537.00;5338740;27;20023;-80
2023/01/13 09:57:08;;;;;;;20.75;3.92;;;;;;;8.41;100.00;100539.91;5342554;27;20016;-81
2023/01/13 09:59:41;;;;;;;22.88;4.85;;;;;;;8.41;100.00;100545.22;5337600;27;20123;-81
2023/01/13 10:02:53;;;;;;;33.53;6.25;;;;;;;8.48;100.00;100543.72;5333273;27;20024;-81
2023/01/13 10:05:35;;;;;;;23.08;4.95;;;;;;;8.44;100.00;100539.69;5336183;27;20036;-80
2023/01/13 10:08:20;;;;;;;22.52;4.93;;;;;;;8.43;100.00;100545.13;5339551;27;20036;-81
2023/01/13 10:10:58;;;;;;;26.13;4.90;;;;;;;8.45;100.00;100553.78;5340389;27;20032;-80
2023/01/13 10:13:30;;;;;;;23.52;5.38;;;;;;;8.58;100.00;100546.44;5336557;27;20024;-80
2023/01/13 10:16:10;;;;;;;23.60;4.45;;;;;;;8.86;100.00;100563.41;5317000;27;20078;-81
2023/01/13 10:19:03;;;;;;;21.60;3.92;;;;;;;9.22;100.00;100557.53;5339259;27;20028;-81
2023/01/13 10:22:08;;;;;;;26.88;4.25;;;;;;;9.39;100.00;100558.66;5339997;27;20838;-80
2023/01/13 10:24:57;;;;;;;18.38;4.60;;;;;;;9.20;100.00;100557.69;5339640;27;20054;-81
2023/01/13 10:27:34;;;;;;;23.02;5.38;;;;;;;9.01;100.00;100568.31;5341297;27;20073;-81
2023/01/13 10:30:20;;;;;;;20.45;4.20;;;;;;;8.79;100.00;100572.91;5340603;27;20104;-80
2023/01/13 10:32:58;;;;;;;17.98;4.07;;;;;;;8.46;100.00;100576.75;5341647;27;20067;-81
2023/01/13 10:35:50;;;;;;;24.98;5.05;;;;;;;8.38;100.00;100585.38;5338736;27;20479;-80
2023/01/13 10:38:34;;;;;;;18.50;4.40;;;;;;;8.06;100.00;100589.00;5336002;27;20031;-81
2023/01/13 10:41:15;;;;;;;18.92;3.58;;;;;;;8.02;100.00;100592.06;5339438;27;20031;-80
2023/01/13 10:44:03;;;;;;;24.08;4.57;;;;;;;7.84;100.00;100605.13;5338637;27;20031;-81
2023/01/13 10:46:53;;;;;;;25.00;4.28;;;;;;;7.71;100.00;100616.78;5330095;27;20039;-80
2023/01/13 10:49:35;;;;;;;24.60;4.25;;;;;;;7.66;100.00;100613.66;5335090;27;20102;-80
2023/01/13 10:52:27;;;;;;;19.35;4.32;;;;;;;7.56;100.00;100620.72;5341166;27;20043;-81
2023/01/13 10:54:59;;;;;;;27.60;4.70;;;;;;;7.62;100.00;100625.50;5339741;27;20031;-81
2023/01/13 10:57:35;;;;;;;25.92;6.07;;;;;;;7.72;100.00;100615.78;5337891;27;20051;-80
2023/01/13 11:00:29;;;;;;;19.43;4.60;;;;;;;7.90;100.00;100615.19;5336992;27;20801;-81
2023/01/13 11:03:21;;;;;;;20.08;4.53;;;;;;;7.96;100.00;100612.03;5331663;27;20081;-82
2023/01/13 11:05:59;;;;;;;21.33;4.63;;;;;;;7.92;100.00;100614.13;5340420;27;20530;-81
2023/01/13 11:08:43;;;;;;;21.38;4.47;;;;;;;7.97;100.00;100602.25;5342036;27;20111;-81
2023/01/13 11:11:33;;;;;;;23.77;5.50;;;;;;;7.99;100.00;100605.59;5335144;27;20024;-82
2023/01/13 11:14:38;;;;;;;22.08;4.07;;;;;;;8.08;100.00;100618.09;5332678;27;20532;-81
2023/01/13 11:17:31;;;;;;;22.25;3.95;;;;;;;8.01;100.00;100612.50;5336530;27;20081;-81
2023/01/13 11:20:03;;;;;;;30.30;4.57;;;;;;;7.99;100.00;100613.56;5339560;27;20108;-82
2023/01/13 11:22:42;;;;;;;27.52;4.00;;;;;;;8.05;100.00;100605.94;5333421;27;20777;-82
2023/01/13 11:25:21;;;;;;;17.17;3.58;;;;;;;8.17;100.00;100619.13;5338403;27;20027;-82
2023/01/13 11:28:34;;;;;;;22.27;4.18;;;;;;;8.31;100.00;100626.75;5338251;27;20028;-82
2023/01/13 11:31:36;;;;;;;19.02;4.13;;;;;;;8.50;100.00;100618.03;5341105;27;20028;-82
2023/01/13 11:34:12;;;;;;;21.67;4.40;;;;;;;8.48;100.00;100620.00;5346576;27;20039;-82
2023/01/13 11:36:50;;;;;;;18.60;4.57;;;;;;;8.52;100.00;100630.22;5351560;27;20776;-83
2023/01/13 11:39:52;;;;;;;21.67;4.90;;;;;;;8.50;100.00;100634.84;5351684;27;20024;-81
2023/01/13 11:42:30;;;;;;;18.90;4.43;;;;;;;8.48;100.00;100635.94;5340724;27;20057;-82
2023/01/13 11:45:23;;;;;;;24.15;4.82;;;;;;;8.46;100.00;100638.72;5340174;27;20024;-81
2023/01/13 11:47:58;;;;;;;23.70;5.00;;;;;;;8.49;100.00;100638.47;5327756;27;20020;-80
2023/01/13 11:50:47;;;;;;;18.90;4.28;;;;;;;8.46;100.00;100645.88;5340743;27;20583;-81
2023/01/13 11:53:37;;;;;;;21.27;4.22;;;;;;;8.55;100.00;100637.06;5328364;27;20032;-81
2023/01/13 11:56:43;;;;;;;18.45;4.18;;;;;;;8.50;100.00;100650.78;5347675;27;20039;-81
2023/01/13 11:59:36;;;;;;;21.27;4.43;;;;;;;8.47;100.00;100634.28;5347149;27;20030;-81
2023/01/13 12:02:36;;;;;;;18.13;3.92;;;;;;;8.53;100.00;100652.31;5347756;27;20053;-81
2023/01/13 12:05:18;;;;;;;18.55;3.80;;;;;;;8.64;100.00;100654.91;5325973;27;20434;-82
2023/01/13 12:08:04;;;;;;;18.95;3.90;;;;;;;8.73;100.00;100645.28;5349243;27;20115;-81
2023/01/13 12:11:04;;;;;;;13.38;3.25;;;;;;;8.73;100.00;100655.06;5331528;27;20383;-81
2023/01/13 12:14:05;;;;;;;21.00;4.15;;;;;;;8.80;100.00;100654.41;5350228;27;20419;-81
2023/01/13 12:16:48;;;;;;;18.92;4.95;;;;;;;8.79;100.00;100665.16;5348474;27;20027;-81
2023/01/13 12:19:29;;;;;;;19.58;3.33;;;;;;;8.83;100.00;100658.59;5348912;27;20422;-82
2023/01/13 12:22:17;;;;;;;25.08;4.40;;;;;;;8.83;100.00;100674.56;5338815;27;20395;-82
2023/01/13 12:24:56;;;;;;;17.05;3.50;;;;;;;8.79;100.00;100652.69;5347946;27;20035;-82
2023/01/13 12:27:46;;;;;;;18.50;4.15;;;;;;;8.88;100.00;100670.50;5347682;27;20036;-81
2023/01/13 12:30:43;;;;;;;15.23;3.47;;;;;;;8.90;100.00;100657.06;5348235;27;20036;-81
2023/01/13 12:33:41;;;;;;;16.80;3.57;;;;;;;8.81;100.00;100664.03;5327565;27;20039;-82
2023/01/13 12:36:46;;;;;;;12.57;2.97;;;;;;;8.78;100.00;100663.47;5325939;28;20107;-82
2023/01/13 12:39:31;;;;;;;14.88;2.88;;;;;;;8.83;100.00;100667.41;5332963;27;20085;-81
2023/01/13 12:45:08;;;;;;;13.52;3.33;;;;;;;8.80;100.00;100681.00;5346339;27;20043;-81
2023/01/13 12:47:42;;;;;;;15.38;3.92;;;;;;;8.79;100.00;100678.47;5343246;27;20035;-82
2023/01/13 12:50:22;;;;;;;18.73;3.83;;;;;;;8.74;100.00;100696.63;5338837;27;20035;-82
2023/01/13 12:53:00;;;;;;;18.98;3.65;;;;;;;8.75;100.00;100706.28;5347296;27;20046;-82
2023/01/13 12:55:35;;;;;;;14.73;3.63;;;;;;;8.73;100.00;100705.56;5348530;27;20126;-80
2023/01/13 12:58:09;;;;;;;18.85;3.70;;;;;;;8.74;100.00;100688.66;5344860;27;20133;-81